Antoing, Belgium
Current Conditions -  °F | °C
As of 1:00 PM on Friday 21 Nov 2014 (Local Time) from LFQQ Reporting Station
Clear Clear  
Wind Chill: 41°   Ceiling: Unl
Heat Index: 45°   Visibility: 5mi
Dew Point: 41°   Wind: 6mph
Humidity: 87%   Direction: 100°E
Pressure: 30.09"   Gusts: NA
Location:  50.57°N, 3.45°E
Report Text: LFQQ 211200Z 10005KT 070V140 8000 NSC 07/05 Q1019 NOSIG
Loading
Personal Weather Stations






























Interactive Weather Map New forecast layout! Learn more

10-Day Weather Forecast

Advertisements
Track Severe Weather on mobile